Time;durP1;ratioP1;P1;durP2;ratioP2;P2;SDS_P1;SDS_P2;PMS_P1;PMS_P2;Temp;Humidity;BMP_temperature;BMP_pressure;BME280_temperature;BME280_humidity;BME280_pressure;Samples;Min_cycle;Max_cycle;Signal;HPM_P1;HPM_P2
2021/10/29 00:00:36;;;;;;;0.73;0.73;;;;;;;9.29;100.00;100225.56;5041210;28;20455;-50
2021/10/29 00:03:04;;;;;;;0.30;0.20;;;;;;;9.37;100.00;100220.94;5045292;28;20454;-50
2021/10/29 00:05:31;;;;;;;0.40;0.40;;;;;;;9.37;100.00;100223.59;5047949;28;20816;-50
2021/10/29 00:07:58;;;;;;;3.60;1.70;;;;;;;9.39;100.00;100221.78;5044644;28;20532;-50
2021/10/29 00:10:26;;;;;;;0.60;0.60;;;;;;;9.42;100.00;100217.25;5041047;28;20446;-51
2021/10/29 00:12:53;;;;;;;1.93;0.90;;;;;;;9.40;100.00;100218.22;5044214;28;20529;-51
2021/10/29 00:15:20;;;;;;;0.30;0.20;;;;;;;9.45;100.00;100216.31;5047574;28;20506;-50
2021/10/29 00:17:48;;;;;;;0.40;0.37;;;;;;;9.28;100.00;100218.50;5045204;28;20467;-50
2021/10/29 00:20:15;;;;;;;0.30;0.20;;;;;;;9.26;100.00;100213.25;5040551;28;20446;-50
2021/10/29 00:22:41;;;;;;;0.30;0.20;;;;;;;9.32;100.00;100207.81;5043151;28;20953;-51
2021/10/29 00:25:08;;;;;;;0.30;0.20;;;;;;;9.28;100.00;100210.56;5039515;28;20471;-51
2021/10/29 00:27:35;;;;;;;0.30;0.30;;;;;;;9.26;100.00;100207.06;5042920;28;20900;-50
2021/10/29 00:30:04;;;;;;;0.73;0.73;;;;;;;9.26;100.00;100199.13;5047511;28;20501;-51
2021/10/29 00:32:31;;;;;;;0.63;0.63;;;;;;;9.12;100.00;100199.47;5045603;28;20489;-51
2021/10/29 00:34:57;;;;;;;7.47;2.63;;;;;;;9.06;100.00;100199.63;5040395;28;20525;-50
2021/10/29 00:37:24;;;;;;;0.30;0.20;;;;;;;9.08;100.00;100198.66;5041564;28;20518;-51
2021/10/29 00:39:51;;;;;;;0.60;0.60;;;;;;;9.18;100.00;100200.19;5047172;28;20448;-50
2021/10/29 00:42:17;;;;;;;0.43;0.43;;;;;;;9.11;100.00;100201.25;5045697;28;20527;-51
2021/10/29 00:44:44;;;;;;;0.40;0.30;;;;;;;9.17;100.00;100198.44;5040230;28;20865;-50
2021/10/29 00:47:11;;;;;;;0.30;0.27;;;;;;;9.14;100.00;100192.34;5041228;28;20467;-50
2021/10/29 00:49:37;;;;;;;0.30;0.20;;;;;;;9.08;100.00;100193.38;5047337;28;20451;-50
2021/10/29 00:52:05;;;;;;;2.93;0.80;;;;;;;9.07;100.00;100202.22;5046309;28;20496;-50
2021/10/29 00:54:31;;;;;;;0.30;0.20;;;;;;;9.01;100.00;100196.19;5040078;28;20487;-50
2021/10/29 00:56:58;;;;;;;0.30;0.20;;;;;;;9.07;100.00;100190.75;5040855;28;20478;-50
2021/10/29 00:59:24;;;;;;;0.93;0.93;;;;;;;9.20;100.00;100187.78;5046916;28;20506;-50
2021/10/29 01:01:51;;;;;;;0.70;0.70;;;;;;;9.07;100.00;100186.31;5046240;28;20561;-50
2021/10/29 01:04:18;;;;;;;0.60;0.60;;;;;;;9.24;100.00;100196.50;5040064;28;20458;-50
2021/10/29 01:06:45;;;;;;;2.47;1.57;;;;;;;9.37;100.00;100186.47;5040219;28;20471;-51
2021/10/29 01:09:12;;;;;;;0.30;0.20;;;;;;;9.42;100.00;100182.78;5046609;28;20483;-50
2021/10/29 01:11:39;;;;;;;0.33;0.20;;;;;;;9.52;100.00;100178.13;5046415;28;20932;-50
2021/10/29 01:14:06;;;;;;;4.87;1.17;;;;;;;9.49;100.00;100179.06;5040353;28;20447;-50
2021/10/29 01:16:33;;;;;;;0.30;0.20;;;;;;;9.47;100.00;100170.28;5039761;28;20546;-50
2021/10/29 01:18:59;;;;;;;0.30;0.20;;;;;;;9.46;100.00;100175.63;5039962;28;20829;-50
2021/10/29 01:21:26;;;;;;;25.80;1.90;;;;;;;9.50;100.00;100180.81;5039566;28;20447;-50
2021/10/29 01:23:53;;;;;;;1.17;1.07;;;;;;;9.56;100.00;100165.63;5046039;28;20451;-50
2021/10/29 01:26:20;;;;;;;0.30;0.20;;;;;;;9.49;100.00;100170.25;5046327;28;20455;-51
2021/10/29 01:28:47;;;;;;;3.40;0.97;;;;;;;9.45;100.00;100164.13;5040995;28;20450;-49
2021/10/29 01:31:16;;;;;;;1.03;0.97;;;;;;;9.45;100.00;100172.06;5039560;28;20448;-50
2021/10/29 01:33:44;;;;;;;0.67;0.67;;;;;;;9.38;100.00;100165.19;5044351;28;20446;-50
2021/10/29 01:36:11;;;;;;;1.07;0.77;;;;;;;9.39;100.00;100166.06;5046004;28;20545;-49
2021/10/29 01:38:40;;;;;;;0.60;0.60;;;;;;;9.27;100.00;100169.91;5042004;28;20508;-49
2021/10/29 01:41:08;;;;;;;0.30;0.20;;;;;;;9.21;100.00;100164.78;5039200;28;20908;-49
2021/10/29 01:43:53;;;;;;;0.40;0.40;;;;;;;9.12;100.00;100159.69;5043033;28;20475;-49
2021/10/29 01:46:19;;;;;;;0.60;0.60;;;;;;;9.11;100.00;100158.81;5046118;28;20450;-50
2021/10/29 01:48:50;;;;;;;0.30;0.20;;;;;;;9.05;100.00;100158.09;5045154;28;20509;-50
2021/10/29 01:51:18;;;;;;;0.30;0.20;;;;;;;9.15;100.00;100152.50;5038999;28;20497;-49
2021/10/29 01:53:45;;;;;;;0.60;0.60;;;;;;;9.24;100.00;100148.78;5020594;28;20582;-50
2021/10/29 01:56:12;;;;;;;0.30;0.20;;;;;;;9.35;100.00;100148.50;5039371;28;20491;-49
2021/10/29 01:58:38;;;;;;;0.30;0.20;;;;;;;9.34;100.00;100150.28;5039057;28;20452;-50
2021/10/29 02:01:05;;;;;;;0.87;0.87;;;;;;;9.37;100.00;100154.63;5045612;28;20459;-49
2021/10/29 02:03:34;;;;;;;2.23;2.20;;;;;;;9.37;100.00;100146.69;5045861;28;20533;-49
2021/10/29 02:06:01;;;;;;;0.40;0.30;;;;;;;9.35;100.00;100146.72;5040053;28;20447;-49
2021/10/29 02:08:28;;;;;;;3.60;2.67;;;;;;;9.40;100.00;100136.84;5038558;28;20528;-49
2021/10/29 02:10:54;;;;;;;1.57;0.80;;;;;;;9.18;100.00;100133.91;5044507;28;20447;-49
2021/10/29 02:13:22;;;;;;;0.40;0.40;;;;;;;9.29;100.00;100119.47;5045599;28;21021;-49
2021/10/29 02:15:49;;;;;;;0.30;0.20;;;;;;;9.32;100.00;100120.28;5040507;28;20486;-49
2021/10/29 02:18:16;;;;;;;1.80;1.70;;;;;;;9.51;100.00;100133.91;5038395;28;20479;-49
2021/10/29 02:20:44;;;;;;;0.83;0.83;;;;;;;9.58;100.00;100131.97;5044027;28;20979;-49
2021/10/29 02:23:12;;;;;;;0.30;0.20;;;;;;;9.57;100.00;100128.44;5045373;28;20952;-49
2021/10/29 02:25:43;;;;;;;2.00;1.90;;;;;;;9.45;100.00;100120.81;5040920;28;20459;-49
2021/10/29 02:28:11;;;;;;;1.03;0.63;;;;;;;9.83;100.00;100138.34;5038752;28;20474;-50
2021/10/29 02:30:40;;;;;;;0.30;0.20;;;;;;;9.96;100.00;100133.56;5042160;28;20514;-50
2021/10/29 02:33:06;;;;;;;1.50;1.40;;;;;;;9.66;100.00;100125.53;5048875;28;20450;-49
2021/10/29 02:35:33;;;;;;;0.40;0.30;;;;;;;9.37;100.00;100134.28;5041430;28;20491;-49
2021/10/29 02:38:00;;;;;;;2.00;2.00;;;;;;;9.32;100.00;100133.53;5045483;28;20835;-49
2021/10/29 02:40:26;;;;;;;0.30;0.20;;;;;;;9.28;100.00;100131.88;5042887;28;20500;-49
2021/10/29 02:42:53;;;;;;;6.37;2.10;;;;;;;9.22;100.00;100121.44;5038438;28;20455;-49
2021/10/29 02:45:19;;;;;;;3.00;1.97;;;;;;;9.15;100.00;100125.13;5040924;28;20872;-49
2021/10/29 02:47:49;;;;;;;0.30;0.20;;;;;;;9.04;100.00;100130.69;5045247;28;20472;-49
2021/10/29 02:50:18;;;;;;;0.90;0.90;;;;;;;9.13;100.00;100130.47;5043688;28;20451;-49
2021/10/29 02:52:45;;;;;;;0.30;0.20;;;;;;;9.07;100.00;100133.28;5038171;28;20451;-49
2021/10/29 02:55:13;;;;;;;0.30;0.20;;;;;;;8.89;100.00;100121.34;5046602;28;20522;-49
2021/10/29 02:57:41;;;;;;;3.10;3.00;;;;;;;8.81;100.00;100122.47;5038458;28;20502;-49
2021/10/29 03:00:11;;;;;;;0.60;0.60;;;;;;;8.58;100.00;100125.63;5039603;28;20452;-49
2021/10/29 03:02:38;;;;;;;1.90;1.90;;;;;;;8.50;100.00;100125.84;5045599;28;20451;-49
2021/10/29 03:05:06;;;;;;;11.63;5.10;;;;;;;8.54;100.00;100127.50;5047612;28;20442;-49
2021/10/29 03:07:32;;;;;;;0.40;0.33;;;;;;;8.59;100.00;100127.38;5049030;28;20541;-49
2021/10/29 03:10:00;;;;;;;0.40;0.37;;;;;;;8.47;100.00;100125.00;5049066;28;20483;-50
2021/10/29 03:12:26;;;;;;;6.47;3.50;;;;;;;8.42;100.00;100133.06;5042948;28;20500;-49
2021/10/29 03:14:55;;;;;;;0.30;0.20;;;;;;;8.49;100.00;100129.34;5042567;28;20538;-50
2021/10/29 03:17:21;;;;;;;2.70;2.63;;;;;;;8.47;100.00;100125.88;5047953;28;20503;-49
2021/10/29 03:19:48;;;;;;;1.83;1.83;;;;;;;8.42;100.00;100122.47;5049095;28;20485;-49
2021/10/29 03:22:15;;;;;;;0.30;0.20;;;;;;;8.55;100.00;100123.94;5043471;28;20508;-49
2021/10/29 03:24:41;;;;;;;1.70;1.60;;;;;;;8.47;100.00;100123.22;5041963;28;20452;-48
2021/10/29 03:27:08;;;;;;;1.07;1.07;;;;;;;8.42;100.00;100122.47;5046864;28;20992;-49
2021/10/29 03:29:36;;;;;;;1.03;1.03;;;;;;;8.39;100.00;100116.38;5049009;28;20474;-49
2021/10/29 03:32:07;;;;;;;1.40;1.40;;;;;;;8.43;100.00;100120.69;5045240;28;20891;-49
2021/10/29 03:34:34;;;;;;;25.03;1.83;;;;;;;8.52;100.00;100128.44;5053957;28;20504;-49
2021/10/29 03:37:03;;;;;;;0.73;0.73;;;;;;;8.53;100.00;100125.75;5046093;28;20546;-49
2021/10/29 03:39:35;;;;;;;1.33;1.33;;;;;;;8.52;100.00;100128.44;5045936;28;20500;-49
2021/10/29 03:42:09;;;;;;;1.27;1.23;;;;;;;8.44;100.00;100119.78;5019464;28;20455;-49
2021/10/29 03:44:47;;;;;;;0.30;0.20;;;;;;;8.45;100.00;100117.09;5042729;28;20469;-49
2021/10/29 03:47:14;;;;;;;1.60;1.50;;;;;;;8.56;100.00;100124.81;5042636;28;20490;-49
2021/10/29 03:49:49;;;;;;;0.30;0.30;;;;;;;8.49;100.00;100128.47;5049446;28;20503;-50
2021/10/29 03:54:46;;;;;;;0.40;0.40;;;;;;;8.39;100.00;100109.31;5046248;28;20458;-49
2021/10/29 03:57:26;;;;;;;0.30;0.20;;;;;;;8.33;100.00;100112.03;5042480;28;20989;-50
2021/10/29 03:59:54;;;;;;;2.07;1.60;;;;;;;8.28;100.00;100113.94;5044773;28;20448;-50
2021/10/29 04:02:23;;;;;;;0.30;0.20;;;;;;;8.37;100.00;100103.19;5048506;28;20452;-49
2021/10/29 04:04:51;;;;;;;0.83;0.83;;;;;;;8.30;100.00;100104.16;5045721;28;20803;-49
2021/10/29 04:07:18;;;;;;;0.30;0.20;;;;;;;8.19;100.00;100099.09;5037205;28;20467;-49
2021/10/29 04:09:44;;;;;;;0.30;0.20;;;;;;;8.31;100.00;100113.84;5046168;28;20472;-50
2021/10/29 04:12:12;;;;;;;0.30;0.20;;;;;;;8.38;100.00;100106.69;5041154;28;20963;-50
2021/10/29 04:14:42;;;;;;;0.40;0.20;;;;;;;8.27;100.00;100110.41;5042441;28;20999;-50
2021/10/29 04:17:08;;;;;;;0.30;0.20;;;;;;;8.23;100.00;100108.75;5028900;28;20526;-50
2021/10/29 04:19:35;;;;;;;0.33;0.30;;;;;;;8.25;100.00;100112.22;5047273;28;20454;-49
2021/10/29 04:22:02;;;;;;;0.30;0.20;;;;;;;8.15;100.00;100108.03;5041478;28;20494;-50
2021/10/29 04:24:29;;;;;;;5.60;2.30;;;;;;;8.16;100.00;100108.91;5042362;28;20486;-49
2021/10/29 04:27:00;;;;;;;0.60;0.57;;;;;;;8.19;100.00;100098.22;5041927;28;20539;-50
2021/10/29 04:29:34;;;;;;;0.70;0.67;;;;;;;8.19;100.00;100096.47;5028028;28;20934;-50
2021/10/29 04:32:02;;;;;;;0.40;0.20;;;;;;;8.31;100.00;100090.91;5046142;28;20451;-50
2021/10/29 04:34:29;;;;;;;0.30;0.20;;;;;;;8.26;100.00;100086.63;5035616;28;20447;-50
2021/10/29 04:36:59;;;;;;;0.40;0.37;;;;;;;8.14;100.00;100097.47;5045897;28;20518;-49
2021/10/29 04:39:26;;;;;;;0.30;0.20;;;;;;;8.19;100.00;100096.47;5047659;28;20500;-50
2021/10/29 04:41:53;;;;;;;0.30;0.20;;;;;;;8.04;100.00;100091.50;5043079;28;20882;-49
2021/10/29 04:44:21;;;;;;;2.30;2.30;;;;;;;8.07;100.00;100101.16;5040403;28;20452;-50
2021/10/29 04:46:49;;;;;;;0.30;0.20;;;;;;;8.00;100.00;100087.19;5045033;28;20468;-50
2021/10/29 04:49:16;;;;;;;0.80;0.80;;;;;;;7.98;100.00;100091.66;5048198;28;20451;-50
2021/10/29 04:51:43;;;;;;;0.97;0.97;;;;;;;7.98;100.00;100084.56;5043809;28;20486;-50
2021/10/29 04:54:10;;;;;;;1.03;1.03;;;;;;;8.09;100.00;100084.34;5040434;28;20452;-50
2021/10/29 04:56:37;;;;;;;0.30;0.20;;;;;;;8.01;100.00;100086.28;5044736;28;20887;-50
2021/10/29 04:59:04;;;;;;;2.70;2.00;;;;;;;7.89;100.00;100081.25;5047377;28;20459;-49
2021/10/29 05:01:31;;;;;;;0.30;0.20;;;;;;;7.71;100.00;100080.72;5043974;28;20869;-49
2021/10/29 05:03:58;;;;;;;0.30;0.20;;;;;;;7.70;100.00;100079.00;5040373;28;20824;-50
2021/10/29 05:06:24;;;;;;;3.90;0.63;;;;;;;7.79;100.00;100074.41;5044458;28;20443;-50
2021/10/29 05:08:51;;;;;;;0.30;0.20;;;;;;;7.70;100.00;100080.75;5047214;28;20950;-50
2021/10/29 05:11:18;;;;;;;0.30;0.20;;;;;;;7.63;100.00;100087.06;5026285;28;20451;-50
2021/10/29 05:13:44;;;;;;;0.53;0.53;;;;;;;7.64;100.00;100086.16;5039690;28;20446;-50
2021/10/29 05:16:11;;;;;;;0.30;0.30;;;;;;;7.68;100.00;100087.88;5043445;28;20491;-50
2021/10/29 05:18:37;;;;;;;0.30;0.20;;;;;;;7.68;100.00;100080.81;5036669;28;20458;-50
2021/10/29 05:21:04;;;;;;;0.30;0.20;;;;;;;7.60;100.00;100081.84;5043491;28;20478;-50
2021/10/29 05:23:30;;;;;;;2.37;2.33;;;;;;;7.56;100.00;100081.03;5046742;28;20513;-50
2021/10/29 05:25:57;;;;;;;1.00;0.20;;;;;;;7.54;100.00;100076.66;5044781;28;20481;-50
2021/10/29 05:28:24;;;;;;;0.40;0.30;;;;;;;7.69;100.00;100071.97;5040058;28;20475;-50
2021/10/29 05:30:50;;;;;;;6.03;1.60;;;;;;;7.67;100.00;100072.88;5026045;28;20452;-50
2021/10/29 05:33:17;;;;;;;0.30;0.20;;;;;;;7.67;100.00;100072.88;5045551;28;20436;-50
2021/10/29 05:35:44;;;;;;;0.30;0.30;;;;;;;7.58;100.00;100063.38;5045368;28;20943;-50
2021/10/29 05:38:10;;;;;;;0.30;0.20;;;;;;;7.54;100.00;100066.97;5039564;28;20528;-50
2021/10/29 05:40:37;;;;;;;0.30;0.20;;;;;;;7.42;100.00;100059.28;5043084;28;20452;-50
2021/10/29 05:43:03;;;;;;;0.30;0.20;;;;;;;7.38;100.00;100053.16;5051992;28;20456;-50
2021/10/29 05:45:30;;;;;;;0.40;0.40;;;;;;;7.49;100.00;100060.88;5050933;28;20481;-51
2021/10/29 05:48:03;;;;;;;0.30;0.20;;;;;;;7.34;100.00;100063.84;5040204;28;20470;-50
2021/10/29 05:50:29;;;;;;;0.67;0.67;;;;;;;7.30;100.00;100070.97;5040892;28;20447;-50
2021/10/29 05:52:57;;;;;;;0.30;0.20;;;;;;;7.24;100.00;100070.19;5028564;28;20448;-50
2021/10/29 05:55:24;;;;;;;0.30;0.20;;;;;;;7.33;100.00;100065.59;5045729;28;20450;-50
2021/10/29 05:57:53;;;;;;;0.30;0.20;;;;;;;7.35;100.00;100066.44;5039023;28;20525;-50
2021/10/29 06:00:27;;;;;;;0.30;0.20;;;;;;;7.58;100.00;100081.00;5039668;28;20451;-50
2021/10/29 06:02:54;;;;;;;0.77;0.77;;;;;;;7.41;100.00;100076.06;5039915;28;20451;-50
2021/10/29 06:05:22;;;;;;;0.30;0.20;;;;;;;7.52;100.00;100070.53;5039038;28;20539;-51
2021/10/29 06:07:49;;;;;;;0.30;0.20;;;;;;;7.42;100.00;100072.50;5044736;28;20499;-51
2021/10/29 06:10:16;;;;;;;0.60;0.60;;;;;;;7.50;100.00;100074.97;5045974;28;20447;-51
2021/10/29 06:12:44;;;;;;;0.70;0.70;;;;;;;7.36;100.00;100069.97;5040379;28;20475;-50
2021/10/29 06:15:13;;;;;;;0.30;0.20;;;;;;;7.38;100.00;100078.72;5039013;28;20953;-50
2021/10/29 06:17:39;;;;;;;0.30;0.20;;;;;;;7.46;100.00;100075.94;5043609;28;20545;-50
2021/10/29 06:20:07;;;;;;;0.53;0.53;;;;;;;7.44;100.00;100073.34;5045489;28;20447;-50
2021/10/29 06:22:39;;;;;;;0.80;0.80;;;;;;;7.42;100.00;100072.50;5041212;28;20970;-50
2021/10/29 06:25:16;;;;;;;0.30;0.20;;;;;;;7.45;100.00;100075.09;5038944;28;20439;-51
2021/10/29 06:30:29;;;;;;;0.30;0.20;;;;;;;7.32;100.00;100063.88;5027732;28;20451;-51
2021/10/29 06:32:56;;;;;;;0.40;0.37;;;;;;;7.48;100.00;100058.28;5039838;28;20459;-50
2021/10/29 06:35:23;;;;;;;0.30;0.20;;;;;;;7.36;100.00;100067.31;5052226;28;20491;-51
2021/10/29 06:37:50;;;;;;;0.30;0.20;;;;;;;7.26;100.00;100066.59;5038796;28;20495;-51
2021/10/29 06:40:16;;;;;;;0.40;0.40;;;;;;;7.15;100.00;100065.09;5046280;28;20487;-50
2021/10/29 06:42:50;;;;;;;0.30;0.20;;;;;;;7.26;100.00;100056.03;5050000;28;20975;-51
2021/10/29 07:01:46;;;;;;;0.30;0.20;;;;;;;7.47;100.00;100056.53;5045650;28;20447;-50
2021/10/29 07:40:06;;;;;;;0.30;0.20;;;;;;;7.84;100.00;100065.47;5041944;28;20474;-50
2021/10/29 07:45:12;;;;;;;6.93;2.23;;;;;;;7.72;100.00;100079.81;5044857;28;20447;-51
2021/10/29 07:47:39;;;;;;;0.30;0.20;;;;;;;7.70;100.00;100076.34;5048065;28;20472;-50
2021/10/29 07:50:08;;;;;;;0.30;0.20;;;;;;;7.66;100.00;100065.84;5046064;28;21009;-51
2021/10/29 07:52:36;;;;;;;0.30;0.30;;;;;;;7.65;100.00;100070.25;5041506;28;20443;-50
2021/10/29 07:55:06;;;;;;;0.30;0.20;;;;;;;7.75;100.00;100070.94;5050770;28;20482;-51
2021/10/29 07:57:32;;;;;;;0.30;0.20;;;;;;;7.81;100.00;100075.22;5041022;28;21003;-51
2021/10/29 08:00:02;;;;;;;1.57;1.57;;;;;;;7.73;100.00;100075.41;5042588;28;20451;-51
2021/10/29 08:02:30;;;;;;;0.30;0.20;;;;;;;7.95;100.00;100065.25;5048278;28;20460;-50
2021/10/29 08:04:57;;;;;;;0.30;0.20;;;;;;;7.92;100.00;100073.22;5030306;28;20443;-50
2021/10/29 08:07:25;;;;;;;0.30;0.20;;;;;;;8.01;100.00;100078.34;5040946;28;20915;-50
2021/10/29 08:09:52;;;;;;;1.63;1.53;;;;;;;7.97;100.00;100079.31;5041778;28;20523;-51
2021/10/29 08:12:20;;;;;;;0.40;0.40;;;;;;;7.79;100.00;100075.25;5047830;28;20510;-51
2021/10/29 08:14:48;;;;;;;0.30;0.20;;;;;;;7.75;100.00;100078.88;5047910;28;20995;-51
2021/10/29 08:17:16;;;;;;;0.60;0.53;;;;;;;7.90;100.00;100089.16;5028683;28;20528;-50
2021/10/29 08:19:43;;;;;;;0.30;0.20;;;;;;;7.95;100.00;100091.72;5040951;28;20571;-51
2021/10/29 08:22:10;;;;;;;0.30;0.20;;;;;;;7.94;100.00;100077.59;5047150;28;20509;-50
2021/10/29 08:24:38;;;;;;;0.30;0.20;;;;;;;8.25;100.00;100084.88;5036358;28;20451;-50
2021/10/29 08:27:07;;;;;;;0.30;0.20;;;;;;;7.85;100.00;100082.22;5046461;28;20503;-51
2021/10/29 08:29:33;;;;;;;0.63;0.60;;;;;;;8.10;100.00;100079.94;5047972;28;20524;-50
2021/10/29 08:32:01;;;;;;;0.30;0.20;;;;;;;7.92;100.00;100086.47;5042302;28;20473;-50
2021/10/29 08:34:28;;;;;;;0.30;0.20;;;;;;;7.95;100.00;100081.13;5041089;28;20877;-50
2021/10/29 08:36:58;;;;;;;0.33;0.23;;;;;;;7.95;100.00;100076.72;5046810;28;20538;-51
2021/10/29 08:39:26;;;;;;;0.40;0.40;;;;;;;7.95;100.00;100076.72;5047561;28;20864;-50
2021/10/29 08:41:54;;;;;;;0.30;0.20;;;;;;;8.17;100.00;100078.88;5042879;28;20516;-50
2021/10/29 08:44:20;;;;;;;0.30;0.20;;;;;;;8.14;100.00;100082.47;5024851;28;20453;-49
2021/10/29 08:46:48;;;;;;;0.40;0.33;;;;;;;7.96;100.00;100074.94;5043014;28;20470;-49
2021/10/29 08:49:15;;;;;;;0.30;0.20;;;;;;;7.96;100.00;100069.63;5040226;28;20451;-49
2021/10/29 08:51:42;;;;;;;0.30;0.20;;;;;;;8.10;100.00;100072.00;5044401;28;20463;-49
2021/10/29 08:54:10;;;;;;;0.87;0.87;;;;;;;8.03;100.00;100069.47;5043999;28;20498;-49
2021/10/29 08:56:36;;;;;;;0.30;0.20;;;;;;;8.06;100.00;100068.50;5043959;28;20529;-49
2021/10/29 08:59:16;;;;;;;0.30;0.20;;;;;;;7.95;100.00;100070.53;5047191;28;20456;-49
2021/10/29 09:01:54;;;;;;;0.30;0.20;;;;;;;8.02;100.00;100065.06;5045037;28;20512;-49
2021/10/29 09:04:31;;;;;;;0.30;0.20;;;;;;;8.12;100.00;100070.16;5027163;28;20493;-48
2021/10/29 09:07:07;;;;;;;15.57;1.80;;;;;;;8.11;100.00;100074.59;5040342;28;20526;-49
2021/10/29 09:09:53;;;;;;;0.30;0.20;;;;;;;8.26;100.00;100078.69;5043800;28;20509;-49
2021/10/29 09:32:01;;;;;;;0.30;0.20;;;;;;;8.44;100.00;100053.56;5027085;28;20469;-51
2021/10/29 09:34:28;;;;;;;0.97;0.97;;;;;;;8.08;100.00;100052.59;5041671;28;21007;-49
2021/10/29 09:36:55;;;;;;;0.30;0.20;;;;;;;8.22;100.00;100061.09;5046365;28;20487;-49
2021/10/29 09:39:24;;;;;;;0.30;0.20;;;;;;;8.31;100.00;100051.16;5028738;28;20443;-49
2021/10/29 09:42:09;;;;;;;0.33;0.20;;;;;;;7.91;100.00;100045.91;5041565;28;20458;-48
2021/10/29 09:44:47;;;;;;;0.30;0.20;;;;;;;8.17;100.00;100047.09;5048869;28;20800;-49
2021/10/29 09:47:18;;;;;;;0.30;0.20;;;;;;;8.21;100.00;100046.13;5046045;28;20529;-49
2021/10/29 09:50:07;;;;;;;0.30;0.20;;;;;;;8.32;100.00;100041.44;5045988;28;20505;-49
2021/10/29 09:57:36;;;;;;;0.30;0.10;;;;;;;8.12;100.00;100041.91;5040043;28;20552;-49
2021/10/29 10:00:05;;;;;;;0.30;0.20;;;;;;;8.30;100.00;100038.84;5042222;28;20447;-49
2021/10/29 10:02:33;;;;;;;1.83;1.17;;;;;;;8.23;100.00;100044.34;5046452;28;20452;-50
2021/10/29 10:05:04;;;;;;;0.30;0.20;;;;;;;8.09;100.00;100043.78;5045617;28;20947;-49
2021/10/29 10:07:49;;;;;;;0.30;0.20;;;;;;;8.22;100.00;100034.63;5039634;28;20465;-49
2021/10/29 10:10:16;;;;;;;0.30;0.20;;;;;;;8.33;100.00;100032.59;5040095;28;20447;-50
2021/10/29 10:12:45;;;;;;;0.30;0.20;;;;;;;8.18;100.00;100032.97;5044602;28;20502;-50
2021/10/29 10:15:13;;;;;;;0.30;0.20;;;;;;;8.22;100.00;100019.63;5047633;28;20939;-50
2021/10/29 10:17:40;;;;;;;1.43;1.33;;;;;;;8.36;100.00;100018.44;5044208;28;20568;-51
2021/10/29 10:20:09;;;;;;;0.50;0.50;;;;;;;8.30;100.00;100012.38;5041938;28;20504;-50
2021/10/29 10:22:39;;;;;;;0.30;0.20;;;;;;;8.41;100.00;100024.53;5043559;28;20509;-50
2021/10/29 10:25:18;;;;;;;0.30;0.20;;;;;;;8.65;100.00;100025.69;5037507;28;20447;-50
2021/10/29 10:45:33;;;;;;;0.30;0.20;;;;;;;9.08;100.00;100013.06;5017604;28;20527;-50
2021/10/29 10:47:51;;;;;;;1.03;1.03;;;;;;;8.96;100.00;100002.78;5042661;28;20475;-50
2021/10/29 10:50:23;;;;;;;0.30;0.20;;;;;;;8.98;100.00;100003.63;5043447;28;20799;-50
2021/10/29 10:53:01;;;;;;;0.40;0.37;;;;;;;9.05;100.00;99999.03;5038476;28;20940;-50
2021/10/29 10:55:48;;;;;;;0.30;0.20;;;;;;;8.78;100.00;99996.22;5045560;28;21025;-50
2021/10/29 10:58:28;;;;;;;0.50;0.50;;;;;;;8.78;100.00;99996.22;5042628;28;20563;-50
2021/10/29 11:01:06;;;;;;;1.27;1.13;;;;;;;8.75;100.00;99983.00;5038699;28;20451;-50
2021/10/29 11:06:13;;;;;;;0.60;0.60;;;;;;;9.06;100.00;99971.63;5044498;28;20459;-52
2021/10/29 11:11:25;;;;;;;0.30;0.20;;;;;;;9.13;100.00;99967.84;5043664;28;20920;-52
2021/10/29 11:13:59;;;;;;;0.30;0.20;;;;;;;8.76;100.00;99976.78;5038353;28;20466;-52
2021/10/29 11:16:30;;;;;;;0.50;0.47;;;;;;;8.64;100.00;99963.91;5038974;28;20863;-51
2021/10/29 11:19:05;;;;;;;0.30;0.20;;;;;;;8.66;100.00;99947.97;5026796;28;20487;-52
2021/10/29 11:21:36;;;;;;;0.30;0.20;;;;;;;8.55;100.00;99962.34;5038843;28;20459;-51
2021/10/29 11:24:08;;;;;;;0.30;0.20;;;;;;;8.81;100.00;99953.72;5042917;28;21042;-52
2021/10/29 11:26:49;;;;;;;0.30;0.20;;;;;;;9.14;100.00;99954.56;5048173;28;20475;-52
2021/10/29 11:29:16;;;;;;;0.30;0.20;;;;;;;9.14;100.00;99936.00;5047801;28;20442;-52
2021/10/29 11:31:45;;;;;;;0.30;0.20;;;;;;;8.80;100.00;99935.22;5041923;28;20505;-52
2021/10/29 11:34:15;;;;;;;0.30;0.20;;;;;;;8.78;100.00;99934.38;5042868;28;20443;-51
2021/10/29 11:36:47;;;;;;;0.30;0.20;;;;;;;9.26;100.00;99931.25;5048816;28;20513;-52
2021/10/29 11:39:15;;;;;;;3.50;2.73;;;;;;;9.27;100.00;99931.22;5048453;28;20493;-52
2021/10/29 11:41:44;;;;;;;0.30;0.20;;;;;;;8.94;100.00;99926.88;5042538;28;20462;-52
2021/10/29 11:44:14;;;;;;;1.30;1.30;;;;;;;9.11;100.00;99919.31;5041705;28;20478;-52
2021/10/29 11:46:43;;;;;;;0.30;0.30;;;;;;;9.02;100.00;99920.44;5046419;28;20502;-52
2021/10/29 11:49:12;;;;;;;0.30;0.20;;;;;;;8.97;100.00;99909.09;5048106;28;20442;-51
2021/10/29 11:51:41;;;;;;;0.30;0.20;;;;;;;8.90;100.00;99910.16;5044312;28;20486;-52
2021/10/29 11:54:32;;;;;;;0.30;0.20;;;;;;;8.92;100.00;99910.16;5041668;28;20447;-51
2021/10/29 11:59:55;;;;;;;0.30;0.20;;;;;;;8.85;100.00;99905.00;5046567;28;20987;-53
2021/10/29 12:07:52;;;;;;;0.30;0.20;;;;;;;8.98;100.00;99880.81;5044364;28;20493;-51
2021/10/29 12:10:21;;;;;;;2.30;1.17;;;;;;;9.11;100.00;99883.06;5041225;28;20512;-52
2021/10/29 12:12:54;;;;;;;1.27;1.17;;;;;;;9.49;100.00;99881.91;5044501;28;20867;-52
2021/10/29 12:15:25;;;;;;;0.30;0.27;;;;;;;9.56;100.00;99871.97;5047758;28;20506;-52
2021/10/29 12:17:58;;;;;;;1.27;0.87;;;;;;;9.37;100.00;99870.81;5046318;28;20494;-52
2021/10/29 12:20:33;;;;;;;0.43;0.40;;;;;;;9.63;100.00;99862.91;5040868;28;20508;-52
2021/10/29 12:23:09;;;;;;;2.00;0.73;;;;;;;9.76;100.00;99858.97;5040862;28;20447;-52
2021/10/29 12:25:53;;;;;;;0.30;0.20;;;;;;;9.52;100.00;99854.44;5032345;28;20527;-51
2021/10/29 12:28:28;;;;;;;0.30;0.20;;;;;;;9.65;100.00;99845.16;5040564;28;20520;-52
2021/10/29 12:31:09;;;;;;;1.07;1.07;;;;;;;9.86;100.00;99837.41;5041428;28;20928;-52
2021/10/29 13:01:34;;;;;;;1.00;0.97;;;;;;;9.94;100.00;99803.50;5043273;28;20536;-52
2021/10/29 13:04:03;;;;;;;0.30;0.20;;;;;;;9.93;100.00;99807.97;5040037;28;20442;-52
2021/10/29 13:06:31;;;;;;;0.60;0.60;;;;;;;10.09;100.00;99793.22;5043106;28;20537;-52
2021/10/29 13:08:59;;;;;;;1.73;1.00;;;;;;;9.86;100.00;99806.41;5047002;28;20480;-52
2021/10/29 13:11:26;;;;;;;0.30;0.20;;;;;;;9.90;100.00;99794.78;5044281;28;20955;-52
2021/10/29 13:14:00;;;;;;;0.80;0.80;;;;;;;10.00;100.00;99806.81;5039640;28;20903;-52
2021/10/29 13:16:28;;;;;;;0.30;0.20;;;;;;;9.98;100.00;99808.66;5041576;28;20470;-52
2021/10/29 13:51:47;;;;;;;0.30;0.20;;;;;;;9.91;100.00;99774.44;5029297;28;20838;-49
2021/10/29 14:02:32;;;;;;;2.10;2.00;;;;;;;10.41;100.00;99763.81;5032751;28;20854;-50
2021/10/29 14:32:13;;;;;;;1.23;1.23;;;;;;;10.54;100.00;99757.13;5018397;28;20442;-51
2021/10/29 14:34:48;;;;;;;0.83;0.83;;;;;;;10.51;100.00;99746.63;5038977;28;20442;-51
2021/10/29 14:40:03;;;;;;;0.30;0.20;;;;;;;10.44;100.00;99735.38;5040153;28;20531;-51
2021/10/29 15:06:20;;;;;;;1.43;1.33;;;;;;;11.19;100.00;99735.13;5044314;28;20450;-51
2021/10/29 15:46:42;;;;;;;0.30;0.20;;;;;;;10.44;100.00;99737.16;5054188;28;20567;-49
2021/10/29 15:51:52;;;;;;;0.30;0.20;;;;;;;9.90;100.00;99720.47;5044778;28;20501;-49
2021/10/29 15:54:19;;;;;;;0.97;0.97;;;;;;;9.98;100.00;99720.19;5041247;28;20442;-49
2021/10/29 15:56:58;;;;;;;2.10;2.00;;;;;;;9.88;100.00;99729.41;5043506;28;20992;-49
2021/10/29 16:18:55;;;;;;;1.70;1.33;;;;;;;9.23;100.00;99698.00;5029094;28;20845;-49
2021/10/29 16:21:22;;;;;;;0.30;0.20;;;;;;;9.28;100.00;99704.88;5040523;28;20497;-49
2021/10/29 16:23:49;;;;;;;0.87;0.77;;;;;;;9.52;100.00;99713.81;5035731;28;20452;-49
2021/10/29 16:26:18;;;;;;;0.40;0.40;;;;;;;9.66;100.00;99711.56;5034435;28;20517;-49
2021/10/29 16:28:47;;;;;;;0.30;0.20;;;;;;;9.65;100.00;99711.63;5029204;28;20524;-49
2021/10/29 16:31:15;;;;;;;0.70;0.70;;;;;;;9.46;100.00;99719.34;5047468;28;20455;-49
2021/10/29 16:33:42;;;;;;;0.40;0.30;;;;;;;9.23;100.00;99705.94;5034276;28;20474;-49